CFS weather

Coffs Harbour Airport
Coffs Harbour, New South Wales, Australia

Public forecast

Using degrees Celsius for public forecast. Weather courtesy of forecast.io.

METAR (pilot weather report)

Closest report is Grafton Airport, 34.0 nm (62.9 km) N. Retrieved 2018/09/23 21:00 UTC (27 minutes ago):

YGFN 232100Z AUTO 21004KT 9999 // NCD 16/// Q1024

TAF (pilot weather forecast)

Closest forecast is Taree Airport, 99.1 nm (183.5 km) SSW. Retrieved 2018/09/23 20:03 UTC (1 hour ago):

TAF TAF YTRE 231826Z 2320/2408 18010KT 9999 -SHRA SCT010 BKN020 FM240000 17012KT 9999 -SHRA BKN025 INTER 2320/2406 4000 SHRA BKN010